Latest Coastal Weather Observations for Lake Macquarie - Cooranbong

IDN60701

Issued at 5:11 am EST Tuesday 4 August 2015 (issued every 10 minutes, with the page automatically refreshed every 10 minutes)

About coastal observations | Map of coastal stations | Coastal observations for NSW | Marine services | Other Formats
Station Details ID: 061412 Name: LAKE MACQUARIE AWS Lat: -33.09 Lon: 151.46 Height: 6.0 m
Data from the previous 72 hours. | See also: Recent months at Lake Macquarie - Cooranbong
Date/Time
EST
Temp

°C
Wind Pressure Rain
since 9am
mm
Weather Cloud Vis
km
Sea
Height
m
Swell
Dir
 
Speed
knots
Gust
knots
hPa Trend Height
m
Period
s
Dir
04/05:00am 2.3 CALM 0 0 1022.0 - 0.0 - - - - - - -
04/04:30am 2.3 CALM 0 0 1021.8 - 0.0 - - - - - - -
04/04:00am 2.4 CALM 0 0 1021.7 - 0.0 - - - - - - -
04/03:30am 2.8 CALM 0 0 1021.7 - 0.0 - - - - - - -
04/03:00am 3.1 CALM 0 0 1021.7 - 0.0 - - - - - - -
04/02:30am 3.5 CALM 0 0 1021.6 - 0.0 - - - - - - -
04/02:00am 4.0 CALM 0 0 1021.8 - 0.0 - - - - - - -
04/01:30am 4.2 CALM 0 0 1021.8 - 0.0 - - - - - - -
04/01:00am 4.7 CALM 0 0 1021.8 - 0.0 - - - - - - -
04/12:30am 5.5 CALM 0 0 1021.8 - 0.0 - - - - - - -
04/12:00am 6.1 CALM 0 0 1021.9 - 0.0 - - - - - - -
 
Date/Time
EST
Temp

°C
Wind Pressure Rain
since 9am
mm
Weather Cloud Vis
km
Sea
Height
m
Swell
Dir
 
Speed
knots
Gust
knots
hPa Trend Height
m
Period
s
Dir
03/11:30pm 6.8 CALM 0 0 1021.8 - 0.0 - - - - - - -
03/11:00pm 7.9 CALM 0 0 1021.6 - 0.0 - - - - - - -
03/10:30pm 9.5 SSW 1 1 1021.4 - 0.0 - - - - - - -
03/10:00pm 12.0 WSW 2 3 1021.3 - 0.0 - - - - - - -
03/09:30pm 12.6 W 6 10 1020.9 - 0.0 - - - - - - -
03/09:00pm 11.8 WNW 1 3 1020.7 - 0.0 - - - - - - -
03/08:30pm 13.6 W 4 9 1020.5 - 0.0 - - - - - - -
03/08:00pm 14.0 WNW 4 7 1020.4 - 0.0 - - - - - - -
03/07:30pm 13.9 W 4 6 1020.1 - 0.0 - - - - - - -
03/07:00pm 13.9 WSW 5 11 1019.7 - 0.0 - - - - - - -
03/06:30pm 14.4 WSW 8 13 1018.7 - 0.0 - - - - - - -
03/06:00pm 14.8 SW 4 9 1018.0 - 0.0 - - - - - - -
03/05:30pm 15.5 WSW 4 9 1017.1 - 0.0 - - - - - - -
03/05:00pm 17.1 WSW 6 14 1016.3 - 0.0 - - - - - - -
03/04:30pm 18.0 W 7 12 1015.3 - 0.0 - - - - - - -
03/04:00pm 18.9 WSW 6 11 1014.8 - 0.0 - - - - - - -
03/03:30pm 19.6 W 6 10 1014.2 - 0.0 - - - - - - -
03/03:00pm 19.2 NNW 6 11 1013.8 - 0.0 - - - - - - -
03/02:30pm 18.9 NNW 6 12 1013.7 - 0.0 - - - - - - -
03/02:00pm 18.7 NNW 7 12 1013.7 - 0.0 - - - - - - -
03/01:30pm 17.8 NW 8 14 1013.8 - 0.0 - - - - - - -
03/01:00pm 17.6 NW 8 15 1014.3 - 0.0 - - - - - - -
03/12:30pm 17.5 NW 6 12 1014.5 - 0.0 - - - - - - -
03/12:00pm 17.2 NW 6 10 1015.1 - 0.0 - - - - - - -
03/11:30am 16.5 NW 6 12 1015.6 - 0.0 - - - - - - -
03/11:00am 16.4 WNW 6 12 1015.9 - 0.0 - - - - - - -
03/10:30am 15.7 WNW 6 13 1016.2 - 0.0 - - - - - - -
03/10:00am 14.9 WNW 7 15 1016.3 - 0.0 - - - - - - -
03/09:30am 14.1 WNW 7 12 1016.4 - 0.0 - - - - - - -
03/09:00am 13.3 NW 8 14 1016.7 - 0.0 - - - - - - -
03/08:30am 12.9 WNW 6 12 1016.2 - 0.0 - - - - - - -
03/08:00am 10.6 N 2 4 1016.0 - 0.0 - - - - - - -
03/07:30am 9.9 NW 2 7 1015.7 - 0.0 - - - - - - -
03/07:00am 8.7 N 3 4 1015.3 - 0.0 - - - - - - -
03/06:30am 11.4 NW 2 5 1015.0 - 0.0 - - - - - - -
03/06:00am 6.9 CALM 0 0 1014.6 - 0.0 - - - - - - -
03/05:30am 7.1 CALM 0 0 1014.2 - 0.0 - - - - - - -
03/05:00am 7.5 CALM 0 2 1014.0 - 0.0 - - - - - - -
03/04:30am 9.5 WSW 2 5 1013.5 - 0.0 - - - - - - -
03/04:00am 10.6 CALM 0 0 1013.3 - 0.0 - - - - - - -
03/03:30am 13.0 S 2 2 1012.8 - 0.0 - - - - - - -
03/03:00am 14.4 SSW 3 5 1012.7 - 0.0 - - - - - - -
03/02:30am 15.7 SW 3 6 1012.5 - 0.0 - - - - - - -
03/02:00am 15.7 W 3 5 1012.5 - 0.0 - - - - - - -
03/01:30am 16.3 WNW 2 5 1012.6 - 0.0 - - - - - - -
03/01:00am 16.1 WNW 3 5 1013.0 - 0.0 - - - - - - -
03/12:30am 12.8 WNW 2 5 1013.1 - 0.0 - - - - - - -
03/12:00am 10.2 WNW 1 5 1013.2 - 0.0 - - - - - - -
 
Date/Time
EST
Temp

°C
Wind Pressure Rain
since 9am
mm
Weather Cloud Vis
km
Sea
Height
m
Swell
Dir
 
Speed
knots
Gust
knots
hPa Trend Height
m
Period
s
Dir
02/11:30pm 10.3 CALM 0 0 1013.3 - 0.0 - - - - - - -
02/11:00pm 10.9 CALM 0 0 1013.1 - 0.0 - - - - - - -
02/10:30pm 11.5 CALM 0 0 1013.4 - 0.0 - - - - - - -
02/10:00pm 11.9 CALM 0 0 1013.5 - 0.0 - - - - - - -
02/09:30pm 12.8 CALM 0 0 1013.4 - 0.0 - - - - - - -
02/09:00pm 13.8 NNW 2 4 1013.3 - 0.0 - - - - - - -
02/08:30pm 13.9 N 1 2 1013.5 - 0.0 - - - - - - -
02/08:00pm 15.8 CALM 0 0 1013.5 - 0.0 - - - - - - -
02/07:30pm 18.8 WNW 2 6 1013.1 - 0.0 - - - - - - -
02/07:00pm 19.1 W 3 6 1012.7 - 0.0 - - - - - - -
02/06:30pm 19.8 WNW 3 5 1012.2 - 0.0 - - - - - - -
02/06:00pm 21.6 NNW 3 4 1011.7 - 0.0 - - - - - - -
02/05:30pm 22.6 NW 4 8 1011.4 - 0.0 - - - - - - -
02/05:00pm 23.1 NNW 4 9 1011.0 - 0.0 - - - - - - -
02/04:30pm 23.7 NNW 6 13 1010.8 - 0.0 - - - - - - -
02/04:00pm 24.7 NW 6 11 1010.9 - 0.0 - - - - - - -
02/03:30pm 24.8 NW 5 9 1010.8 - 0.0 - - - - - - -
02/03:00pm 24.6 NW 7 13 1010.8 - 0.0 - - - - - - -
02/02:30pm 24.9 NW 7 17 1010.8 - 0.0 - - - - - - -
02/02:00pm 25.5 NW 8 16 1010.7 - 0.0 - - - - - - -
02/01:30pm 25.8 NW 12 22 1010.9 - 0.0 - - - - - - -
02/01:00pm 26.1 NW 11 21 1011.3 - 0.0 - - - - - - -
02/12:30pm 25.4 NW 12 20 1011.7 - 0.0 - - - - - - -
02/12:13pm 25.1 NW 15 26 1012.1 - 0.0 - - - - - - -
02/12:00pm 25.0 NW 12 22 1012.5 - 0.0 - - - - - - -
02/11:30am 24.6 NNW 11 26 1013.0 - 0.0 - - - - - - -
02/11:00am 23.9 NW 10 19 1013.9 - 0.0 - - - - - - -
02/10:30am 23.0 NNW 7 13 1014.8 - 0.0 - - - - - - -
02/10:00am 20.7 E 3 5 1015.3 - 0.0 - - - - - - -
02/09:30am 19.5 E 4 5 1015.6 - 0.0 - - - - - - -
02/09:00am 16.3 CALM 0 0 1015.8 - 0.0 - - - - - - -
02/08:30am 11.6 NW 1 4 1016.2 - 0.0 - - - - - - -
02/08:00am 8.5 CALM 0 0 1016.4 - 0.0 - - - - - - -
02/07:30am 6.7 CALM 0 0 1016.3 - 0.0 - - - - - - -
02/07:00am 6.5 CALM 0 0 1016.1 - 0.0 - - - - - - -
02/06:30am 6.8 CALM 0 0 1016.2 - 0.0 - - - - - - -
02/06:00am 6.9 CALM 0 0 1016.5 - 0.0 - - - - - - -
02/05:30am 7.1 CALM 0 0 1016.5 - 0.0 - - - - - - -
02/05:00am 7.5 CALM 0 0 1016.6 - 0.0 - - - - - - -
02/04:30am 7.9 CALM 0 0 1016.7 - 0.0 - - - - - - -
02/04:00am 8.3 CALM 0 0 1016.7 - 0.0 - - - - - - -
02/03:30am 8.7 CALM 0 0 1016.8 - 0.0 - - - - - - -
02/03:00am 9.3 CALM 0 0 1016.9 - 0.0 - - - - - - -
02/02:30am 9.8 CALM 0 0 1017.0 - 0.0 - - - - - - -
02/02:00am 10.2 CALM 0 0 1017.1 - 0.0 - - - - - - -
02/01:30am 11.1 N 2 5 1017.1 - 0.0 - - - - - - -
02/01:00am 11.3 N 2 3 1016.9 - 0.0 - - - - - - -
02/12:30am 13.9 NNW 3 5 1017.0 - 0.0 - - - - - - -
02/12:00am 9.8 CALM 0 2 1017.4 - 0.0 - - - - - - -
 
Date/Time
EST
Temp

°C
Wind Pressure Rain
since 9am
mm
Weather Cloud Vis
km
Sea
Height
m
Swell
Dir
 
Speed
knots
Gust
knots
hPa Trend Height
m
Period
s
Dir
01/11:30pm 10.3 W 1 3 1017.8 - 0.0 - - - - - - -
01/11:00pm 10.9 CALM 0 0 1017.6 - 0.0 - - - - - - -
01/10:30pm 11.2 CALM 0 0 1017.8 - 0.0 - - - - - - -
01/10:00pm 11.1 N 4 5 1017.9 - 0.0 - - - - - - -
01/09:30pm 10.1 CALM 0 0 1018.2 - 0.0 - - - - - - -
01/09:00pm 9.8 CALM 0 0 1018.3 - 0.0 - - - - - - -
01/08:30pm 10.3 CALM 0 0 1018.3 - 0.0 - - - - - - -
01/08:00pm 10.8 NNE 1 3 1018.1 - 0.0 - - - - - - -
01/07:30pm 11.1 N 1 3 1017.8 - 0.0 - - - - - - -
01/07:00pm 12.2 CALM 0 0 1017.9 - 0.0 - - - - - - -
01/06:30pm 12.6 CALM 0 0 1017.2 - 0.0 - - - - - - -
01/06:00pm 13.9 CALM 0 0 1017.4 - 0.0 - - - - - - -
01/05:30pm 15.3 CALM 0 0 1016.7 - 0.0 - - - - - - -
01/05:00pm 18.0 N 1 3 1016.6 - 0.0 - - - - - - -
01/04:30pm 19.8 N 2 3 1016.5 - 0.0 - - - - - - -
01/04:00pm 21.9 WNW 7 13 1016.6 - 0.0 - - - - - - -
01/03:30pm 22.4 NW 5 9 1016.5 - 0.0 - - - - - - -
01/03:00pm 22.3 NW 8 15 1016.5 - 0.0 - - - - - - -
01/02:30pm 22.6 NW 7 14 1016.4 - 0.0 - - - - - - -
01/02:00pm 23.4 NW 5 10 1016.2 - 0.0 - - - - - - -
01/01:30pm 22.5 N 4 7 1016.3 - 0.0 - - - - - - -
01/01:00pm 21.9 NNW 5 7 1016.7 - 0.0 - - - - - - -
01/12:30pm 21.8 NNW 3 6 1017.1 - 0.0 - - - - - - -
01/12:00pm 20.8 NW 7 12 1017.6 - 0.0 - - - - - - -
01/11:30am 20.9 NNW 6 10 1018.0 - 0.0 - - - - - - -
01/11:00am 19.8 NNW 5 9 1018.8 - 0.0 - - - - - - -
01/10:30am 19.0 NNW 5 9 1019.1 - 0.0 - - - - - - -
01/10:00am 18.0 NNW 6 11 1019.6 - 0.0 - - - - - - -
01/09:30am 15.7 N 3 7 1019.9 - 0.0 - - - - - - -
01/09:00am 11.8 CALM 0 0 1020.1 - 0.0 - - - - - - -
01/08:30am 8.6 CALM 0 0 1019.9 - 0.0 - - - - - - -
01/08:00am 5.2 CALM 0 0 1019.9 - 0.0 - - - - - - -
01/07:30am 3.3 CALM 0 0 1019.7 - 0.0 - - - - - - -
01/07:00am 2.5 CALM 0 0 1019.5 - 0.0 - - - - - - -
01/06:30am 2.2 CALM 0 0 1019.4 - 0.0 - - - - - - -
01/06:00am 2.4 CALM 0 1 1019.3 - 0.0 - - - - - - -
01/05:30am 2.0 N 2 3 1019.2 - 0.0 - - - - - - -

Other Formats:

Comma delimited format used in spreadsheet applications
http://www.bom.gov.au/fwo/IDN60701/IDN60701.95767.axf

JavaScript Object Notation format (JSON) in row-major order
http://www.bom.gov.au/fwo/IDN60701/IDN60701.95767.json